Time;durP1;ratioP1;P1;durP2;ratioP2;P2;SDS_P1;SDS_P2;PMS_P1;PMS_P2;Temp;Humidity;BMP_temperature;BMP_pressure;BME280_temperature;BME280_humidity;BME280_pressure;Samples;Min_cycle;Max_cycle;Signal;HPM_P1;HPM_P2
2023/03/08 00:01:30;;;;;;;3.83;1.77;;;0.70;99.90;;;;;;5037091;28;20086;-73
2023/03/08 00:03:56;;;;;;;3.85;1.20;;;0.70;99.90;;;;;;5054559;28;20047;-73
2023/03/08 00:06:23;;;;;;;2.65;1.27;;;0.70;99.90;;;;;;5036908;28;20508;-73
2023/03/08 00:08:49;;;;;;;2.42;1.38;;;0.60;99.90;;;;;;5054826;28;20098;-73
2023/03/08 00:11:15;;;;;;;2.90;1.20;;;0.60;99.90;;;;;;5036887;28;20128;-72
2023/03/08 00:13:41;;;;;;;1.92;1.10;;;0.70;99.90;;;;;;5036875;28;20041;-72
2023/03/08 00:16:09;;;;;;;1.92;1.40;;;0.60;99.90;;;;;;5037155;28;20044;-72
2023/03/08 00:18:35;;;;;;;2.85;1.35;;;0.60;99.90;;;;;;5036792;28;20049;-72
2023/03/08 00:21:03;;;;;;;3.28;2.00;;;0.70;99.90;;;;;;5036599;28;20040;-72
2023/03/08 00:23:29;;;;;;;8.48;1.45;;;0.70;99.90;;;;;;5036432;28;20564;-72
2023/03/08 00:25:54;;;;;;;2.03;1.33;;;0.60;99.90;;;;;;5036597;28;20119;-72
2023/03/08 00:28:20;;;;;;;3.17;1.77;;;0.50;99.90;;;;;;5030675;28;20117;-72
2023/03/08 00:31:01;;;;;;;7.05;1.60;;;0.70;99.90;;;;;;5034420;28;20091;-72
2023/03/08 00:33:27;;;;;;;2.83;1.35;;;0.50;99.90;;;;;;5019611;28;20053;-72
2023/03/08 00:35:58;;;;;;;2.75;1.42;;;0.70;99.90;;;;;;5036501;28;20048;-72
2023/03/08 00:38:24;;;;;;;5.25;1.58;;;0.60;99.90;;;;;;5036733;28;20401;-73
2023/03/08 00:40:50;;;;;;;2.65;1.38;;;0.70;99.90;;;;;;5036405;28;20040;-72
2023/03/08 00:43:16;;;;;;;4.40;1.67;;;0.60;99.90;;;;;;5019149;28;20071;-72
2023/03/08 00:45:41;;;;;;;2.22;1.27;;;0.50;99.90;;;;;;5036078;28;20120;-72
2023/03/08 00:48:07;;;;;;;1.48;1.17;;;0.60;99.90;;;;;;5036150;28;20044;-72
2023/03/08 00:50:32;;;;;;;3.67;1.35;;;0.70;99.90;;;;;;5054304;28;20037;-72
2023/03/08 00:52:58;;;;;;;5.40;1.65;;;0.60;99.90;;;;;;5036317;28;20041;-72
2023/03/08 00:55:23;;;;;;;5.05;1.40;;;0.60;99.90;;;;;;5053722;28;20527;-72
2023/03/08 00:57:49;;;;;;;3.83;1.50;;;0.60;99.90;;;;;;5053937;28;20056;-72
2023/03/08 01:00:15;;;;;;;3.65;1.38;;;0.60;99.90;;;;;;5054014;28;20458;-72
2023/03/08 01:02:40;;;;;;;3.35;1.92;;;0.60;99.90;;;;;;5053581;28;20045;-72
2023/03/08 01:05:08;;;;;;;5.47;1.45;;;0.50;99.90;;;;;;5035975;28;20041;-73
2023/03/08 01:07:33;;;;;;;4.88;1.90;;;0.50;99.90;;;;;;5035915;28;20041;-72
2023/03/08 01:09:59;;;;;;;4.45;2.03;;;0.50;99.90;;;;;;5053651;28;20044;-72
2023/03/08 01:12:25;;;;;;;5.07;1.25;;;0.40;99.90;;;;;;5036111;28;20447;-72
2023/03/08 01:14:51;;;;;;;2.92;1.70;;;0.40;99.90;;;;;;5053198;28;20420;-73
2023/03/08 01:17:17;;;;;;;4.32;1.50;;;0.60;99.90;;;;;;5035892;28;20049;-72
2023/03/08 01:19:43;;;;;;;3.80;2.05;;;0.50;99.90;;;;;;5053691;28;20032;-72
2023/03/08 01:22:09;;;;;;;6.28;1.42;;;0.50;99.90;;;;;;5035611;28;20052;-72
2023/03/08 01:24:34;;;;;;;4.60;1.80;;;0.40;99.90;;;;;;5035157;28;20136;-72
2023/03/08 01:27:00;;;;;;;3.00;1.60;;;0.50;99.90;;;;;;5019137;28;20067;-73
2023/03/08 01:29:26;;;;;;;2.70;1.60;;;0.50;99.90;;;;;;5053240;28;20062;-72
2023/03/08 01:31:52;;;;;;;2.42;1.75;;;0.40;99.90;;;;;;5035371;28;20052;-73
2023/03/08 01:34:19;;;;;;;5.70;1.75;;;0.50;99.90;;;;;;5034952;28;20052;-73
2023/03/08 01:36:45;;;;;;;4.18;1.58;;;0.50;99.90;;;;;;5035290;28;20515;-72
2023/03/08 01:39:11;;;;;;;3.65;1.63;;;0.40;99.90;;;;;;5035205;28;20045;-72
2023/03/08 01:41:37;;;;;;;4.25;1.60;;;0.50;99.90;;;;;;5035242;28;20048;-72
2023/03/08 01:44:03;;;;;;;5.63;1.48;;;0.30;99.90;;;;;;5034676;28;20443;-72
2023/03/08 01:46:35;;;;;;;4.82;1.55;;;0.30;99.90;;;;;;5035122;28;20041;-72
2023/03/08 01:49:10;;;;;;;2.03;1.20;;;0.30;99.90;;;;;;5035034;28;20041;-72
2023/03/08 01:51:39;;;;;;;5.60;1.60;;;0.40;99.90;;;;;;5035337;28;20028;-72
2023/03/08 01:54:18;;;;;;;2.70;1.20;;;0.50;99.90;;;;;;5034677;28;20036;-72
2023/03/08 01:56:47;;;;;;;3.95;1.52;;;0.50;99.90;;;;;;5052778;28;20072;-72
2023/03/08 01:59:14;;;;;;;2.95;1.13;;;0.50;99.90;;;;;;5052915;28;20395;-72
2023/03/08 02:01:40;;;;;;;4.53;1.40;;;0.40;99.90;;;;;;5052751;28;20124;-72
2023/03/08 02:04:06;;;;;;;3.47;1.40;;;0.30;99.90;;;;;;5034351;28;20128;-72
2023/03/08 02:06:32;;;;;;;4.22;1.38;;;0.40;99.90;;;;;;5034840;28;20095;-72
2023/03/08 02:09:03;;;;;;;2.92;1.55;;;0.20;99.90;;;;;;5034938;28;20107;-72
2023/03/08 02:11:28;;;;;;;4.57;1.55;;;0.30;99.90;;;;;;5034752;28;20077;-72
2023/03/08 02:13:54;;;;;;;2.22;1.20;;;0.30;99.90;;;;;;5034372;28;20080;-73
2023/03/08 02:16:21;;;;;;;1.88;1.55;;;0.30;99.90;;;;;;5034806;28;20045;-72
2023/03/08 02:18:59;;;;;;;5.57;1.73;;;0.30;99.90;;;;;;5034009;28;20128;-72
2023/03/08 02:21:26;;;;;;;2.95;1.30;;;0.20;99.90;;;;;;5035050;28;20044;-71
2023/03/08 02:23:53;;;;;;;3.17;1.25;;;0.40;99.90;;;;;;5034167;28;20048;-71
2023/03/08 02:26:18;;;;;;;4.03;2.28;;;0.40;99.90;;;;;;5034829;28;20396;-73
2023/03/08 02:28:44;;;;;;;2.15;1.20;;;0.30;99.90;;;;;;5034617;28;20037;-73
2023/03/08 02:31:11;;;;;;;2.67;1.27;;;0.30;99.90;;;;;;5018059;28;20037;-72
2023/03/08 02:33:36;;;;;;;2.50;1.10;;;0.30;99.90;;;;;;5033932;28;20045;-72
2023/03/08 02:36:03;;;;;;;1.77;1.00;;;0.30;99.90;;;;;;5034683;28;20407;-72
2023/03/08 02:38:29;;;;;;;6.57;1.27;;;0.30;99.90;;;;;;5052139;28;20048;-73
2023/03/08 02:40:55;;;;;;;4.45;1.52;;;0.40;99.90;;;;;;5034355;28;20036;-73
2023/03/08 02:43:21;;;;;;;2.97;1.25;;;0.30;99.90;;;;;;5033842;28;20037;-72
2023/03/08 02:45:47;;;;;;;3.00;1.20;;;0.20;99.90;;;;;;5052005;28;20122;-71
2023/03/08 02:48:14;;;;;;;2.78;1.27;;;0.20;99.90;;;;;;5052026;28;20082;-71
2023/03/08 02:50:39;;;;;;;3.70;1.40;;;0.20;99.90;;;;;;5033980;28;20044;-71
2023/03/08 02:53:05;;;;;;;4.53;1.40;;;0.20;99.90;;;;;;5033724;28;20047;-74
2023/03/08 02:55:34;;;;;;;2.58;1.42;;;0.30;99.90;;;;;;5033891;28;20474;-74
2023/03/08 02:58:02;;;;;;;2.63;1.40;;;0.20;99.90;;;;;;5033954;28;20041;-74
2023/03/08 03:00:27;;;;;;;4.20;1.35;;;0.30;99.90;;;;;;5033854;28;20063;-72
2023/03/08 03:02:53;;;;;;;2.88;1.20;;;0.20;99.90;;;;;;5033607;28;20041;-74
2023/03/08 03:05:18;;;;;;;7.78;1.80;;;0.40;99.90;;;;;;5033531;28;20036;-74
2023/03/08 03:07:44;;;;;;;2.42;1.42;;;0.20;99.90;;;;;;5033747;28;20044;-74
2023/03/08 03:10:11;;;;;;;2.70;1.30;;;0.20;99.90;;;;;;5017373;28;20040;-74
2023/03/08 03:12:37;;;;;;;4.97;1.50;;;0.10;99.90;;;;;;5033607;28;20107;-74
2023/03/08 03:15:05;;;;;;;6.15;2.00;;;0.30;99.90;;;;;;5033254;28;20044;-74
2023/03/08 03:17:30;;;;;;;4.10;1.67;;;0.20;99.90;;;;;;5033695;28;20052;-72
2023/03/08 03:19:56;;;;;;;2.25;1.30;;;0.20;99.90;;;;;;5033906;28;20045;-71
2023/03/08 03:22:22;;;;;;;3.60;1.88;;;0.20;99.90;;;;;;5033500;28;20642;-71
2023/03/08 03:24:50;;;;;;;3.72;2.00;;;0.30;99.90;;;;;;5033422;28;20040;-71
2023/03/08 03:27:17;;;;;;;2.20;1.42;;;0.30;99.90;;;;;;5033898;28;20044;-71
2023/03/08 03:29:42;;;;;;;3.50;1.50;;;0.20;99.90;;;;;;5033868;28;20578;-71
2023/03/08 03:32:08;;;;;;;5.03;1.60;;;0.30;99.90;;;;;;5037731;28;20033;-71
2023/03/08 03:34:33;;;;;;;3.78;1.92;;;0.30;99.90;;;;;;5037087;28;20119;-71
2023/03/08 03:36:59;;;;;;;3.95;1.35;;;0.30;99.90;;;;;;5037602;28;20080;-71
2023/03/08 03:39:24;;;;;;;3.33;1.30;;;0.20;99.90;;;;;;5037598;28;20068;-71
2023/03/08 03:41:50;;;;;;;5.20;1.50;;;0.30;99.90;;;;;;5037911;28;20047;-74
2023/03/08 03:44:16;;;;;;;8.05;2.20;;;0.10;99.90;;;;;;5020529;28;20037;-75
2023/03/08 03:46:41;;;;;;;3.20;1.20;;;0.20;99.90;;;;;;5037523;28;20515;-74
2023/03/08 03:49:07;;;;;;;5.60;1.48;;;0.10;99.90;;;;;;5055218;28;20076;-74
2023/03/08 03:51:32;;;;;;;1.70;1.17;;;0.30;99.90;;;;;;5037596;28;20048;-75
2023/03/08 03:53:58;;;;;;;2.83;1.42;;;0.20;99.90;;;;;;5036930;28;20645;-74
2023/03/08 03:56:26;;;;;;;2.50;1.02;;;0.20;99.90;;;;;;5055202;28;20044;-73
2023/03/08 03:58:52;;;;;;;2.25;1.10;;;0.10;99.90;;;;;;5055033;28;20106;-73
2023/03/08 04:01:27;;;;;;;3.67;1.13;;;0.30;99.90;;;;;;5055084;28;20151;-74
2023/03/08 04:03:54;;;;;;;4.40;1.50;;;0.20;99.90;;;;;;5036694;28;20459;-74
2023/03/08 04:06:28;;;;;;;2.53;1.00;;;0.10;99.90;;;;;;5055009;28;20052;-74
2023/03/08 04:08:56;;;;;;;5.45;1.15;;;0.20;99.90;;;;;;5054860;28;20064;-71
2023/03/08 04:11:25;;;;;;;3.38;1.80;;;0.20;99.90;;;;;;5036953;28;20116;-71
2023/03/08 04:13:50;;;;;;;2.30;1.40;;;0.00;99.90;;;;;;5036531;28;20036;-71
2023/03/08 04:16:36;;;;;;;1.70;1.08;;;0.20;99.90;;;;;;5036912;28;20040;-71
2023/03/08 04:19:06;;;;;;;2.50;1.48;;;0.20;99.90;;;;;;5054848;28;20431;-71
2023/03/08 04:21:32;;;;;;;5.18;1.45;;;0.10;99.90;;;;;;5036734;28;20124;-71
2023/03/08 04:23:57;;;;;;;3.63;1.30;;;0.10;99.90;;;;;;5036391;28;20524;-71
2023/03/08 04:26:23;;;;;;;4.65;2.03;;;0.20;99.90;;;;;;5036789;28;20037;-71
2023/03/08 04:28:49;;;;;;;4.20;1.25;;;0.10;99.90;;;;;;5036555;28;20049;-71
2023/03/08 04:31:18;;;;;;;6.28;1.42;;;0.30;99.90;;;;;;5036405;28;20511;-73
2023/03/08 04:33:44;;;;;;;2.35;1.13;;;0.20;99.90;;;;;;5042157;22;20069;-71
2023/03/08 04:36:11;;;;;;;4.47;1.83;;;0.30;99.90;;;;;;5034455;28;20061;-71
2023/03/08 04:38:37;;;;;;;2.50;1.50;;;0.10;99.90;;;;;;5034001;28;20049;-71
2023/03/08 04:41:10;;;;;;;1.85;1.10;;;0.10;99.90;;;;;;5015945;28;20080;-71
2023/03/08 04:43:43;;;;;;;3.42;1.58;;;0.10;99.90;;;;;;5033839;28;20612;-71
2023/03/08 04:46:08;;;;;;;1.90;1.27;;;0.20;99.90;;;;;;5034420;28;20041;-71
2023/03/08 04:48:35;;;;;;;3.28;1.45;;;0.30;99.90;;;;;;5034223;28;20485;-71
2023/03/08 04:51:02;;;;;;;5.40;1.83;;;0.30;99.90;;;;;;5034178;28;20064;-71
2023/03/08 04:53:29;;;;;;;4.22;1.73;;;0.40;99.90;;;;;;5033570;28;20044;-71
2023/03/08 04:55:54;;;;;;;4.25;2.63;;;0.40;99.90;;;;;;5034016;28;20052;-71
2023/03/08 04:58:21;;;;;;;3.88;1.90;;;0.30;99.90;;;;;;5016082;28;20033;-71
2023/03/08 05:00:46;;;;;;;2.85;1.40;;;0.30;99.90;;;;;;5034140;28;20033;-71
2023/03/08 05:03:12;;;;;;;2.20;1.42;;;0.20;99.90;;;;;;5033449;28;20382;-71
2023/03/08 05:05:47;;;;;;;3.63;1.80;;;0.40;99.90;;;;;;5033836;28;20037;-70
2023/03/08 05:08:13;;;;;;;2.90;1.95;;;0.30;99.90;;;;;;5033783;28;20064;-70
2023/03/08 05:10:39;;;;;;;5.13;1.85;;;0.10;99.90;;;;;;5034005;28;20508;-70
2023/03/08 05:13:05;;;;;;;4.25;1.75;;;0.20;99.90;;;;;;5033455;28;20120;-71
2023/03/08 05:15:30;;;;;;;4.72;1.85;;;0.20;99.90;;;;;;5033716;28;20045;-70
2023/03/08 05:17:56;;;;;;;3.35;2.45;;;0.10;99.90;;;;;;5033696;28;20075;-71
2023/03/08 05:20:21;;;;;;;2.83;1.80;;;0.20;99.90;;;;;;5033587;28;20513;-71
2023/03/08 05:22:47;;;;;;;3.70;1.63;;;0.30;99.90;;;;;;5033297;28;20052;-71
2023/03/08 05:25:12;;;;;;;3.25;1.67;;;0.20;99.90;;;;;;5033436;28;20041;-71
2023/03/08 05:27:38;;;;;;;3.05;1.88;;;0.30;99.90;;;;;;5033578;28;20034;-71
2023/03/08 05:30:04;;;;;;;4.07;1.90;;;0.30;99.90;;;;;;5033552;28;20037;-71
2023/03/08 05:32:29;;;;;;;5.28;2.20;;;0.30;99.90;;;;;;5033153;28;20504;-71
2023/03/08 05:34:55;;;;;;;5.53;2.22;;;0.40;99.90;;;;;;5032952;28;20130;-71
2023/03/08 05:37:24;;;;;;;5.75;3.08;;;0.20;99.90;;;;;;5033229;28;20516;-71
2023/03/08 05:39:50;;;;;;;3.00;1.80;;;0.20;99.90;;;;;;4999190;28;20081;-70
2023/03/08 05:42:16;;;;;;;3.50;1.98;;;0.20;99.90;;;;;;5033236;28;20059;-70
2023/03/08 05:44:41;;;;;;;3.53;2.05;;;0.20;99.90;;;;;;5032781;28;20500;-70
2023/03/08 05:47:07;;;;;;;4.53;2.30;;;0.10;99.90;;;;;;5033043;28;20041;-71
2023/03/08 05:49:33;;;;;;;4.35;2.75;;;0.30;99.90;;;;;;5033076;28;20112;-71
2023/03/08 05:51:58;;;;;;;4.30;2.60;;;0.10;99.90;;;;;;5015059;28;20060;-71
2023/03/08 05:54:24;;;;;;;4.28;2.58;;;0.20;99.90;;;;;;5031656;28;20037;-71
2023/03/08 05:56:49;;;;;;;4.47;3.10;;;0.20;99.90;;;;;;5032871;28;20041;-71
2023/03/08 05:59:15;;;;;;;8.13;5.18;;;0.10;99.90;;;;;;5032874;28;20037;-71
2023/03/08 06:01:40;;;;;;;7.43;2.97;;;0.20;99.90;;;;;;5014840;28;20045;-71
2023/03/08 06:04:06;;;;;;;4.05;3.22;;;0.20;99.90;;;;;;5032095;28;20098;-71
2023/03/08 06:06:31;;;;;;;6.63;3.47;;;0.10;99.90;;;;;;4998600;28;20037;-71
2023/03/08 06:08:57;;;;;;;6.15;3.85;;;0.10;99.90;;;;;;5032844;28;20041;-71
2023/03/08 06:11:23;;;;;;;5.75;3.13;;;0.10;99.90;;;;;;5032822;28;20029;-71
2023/03/08 06:13:48;;;;;;;5.97;3.90;;;0.10;99.90;;;;;;5014573;28;20676;-71
2023/03/08 06:16:14;;;;;;;7.20;3.88;;;0.20;99.90;;;;;;5032323;28;20077;-71
2023/03/08 06:18:41;;;;;;;7.65;4.13;;;0.10;99.90;;;;;;5014647;28;20045;-71
2023/03/08 06:21:13;;;;;;;9.05;4.55;;;0.20;99.90;;;;;;5032646;28;20647;-71
2023/03/08 06:23:39;;;;;;;5.78;4.97;;;0.20;99.90;;;;;;5032047;28;20042;-71
2023/03/08 06:26:06;;;;;;;6.43;4.53;;;0.20;99.90;;;;;;5032091;28;20050;-71
2023/03/08 06:28:32;;;;;;;8.60;5.55;;;0.10;99.90;;;;;;5031916;28;20092;-71
2023/03/08 06:30:58;;;;;;;6.95;5.13;;;0.10;99.90;;;;;;5032176;28;20054;-71
2023/03/08 06:33:27;;;;;;;7.68;5.70;;;0.30;99.90;;;;;;5031566;28;20519;-71
2023/03/08 06:36:01;;;;;;;10.27;6.00;;;0.30;99.90;;;;;;5014322;28;20088;-71
2023/03/08 06:38:28;;;;;;;10.05;5.80;;;0.30;99.90;;;;;;5032305;28;20048;-71
2023/03/08 06:40:54;;;;;;;8.13;5.47;;;0.30;99.90;;;;;;5032250;28;20048;-71
2023/03/08 06:43:19;;;;;;;7.88;5.55;;;0.30;99.90;;;;;;5031301;28;20042;-71
2023/03/08 06:45:45;;;;;;;7.60;5.80;;;0.20;99.90;;;;;;5031866;28;20327;-71
2023/03/08 06:48:11;;;;;;;8.20;6.22;;;0.20;99.90;;;;;;5031952;28;20108;-71
2023/03/08 06:50:36;;;;;;;9.00;6.60;;;0.30;99.90;;;;;;5032203;28;20128;-71
2023/03/08 06:53:02;;;;;;;12.80;6.80;;;0.30;99.90;;;;;;5031523;28;20040;-71
2023/03/08 06:55:27;;;;;;;9.82;7.50;;;0.30;99.90;;;;;;5031762;28;20095;-71
2023/03/08 06:57:56;;;;;;;10.50;7.25;;;0.30;99.90;;;;;;5031854;28;20083;-71
2023/03/08 07:00:22;;;;;;;13.82;8.63;;;0.40;99.90;;;;;;5031831;28;20040;-71
2023/03/08 07:02:48;;;;;;;10.13;7.90;;;0.50;99.90;;;;;;5031540;28;20660;-71
2023/03/08 07:05:14;;;;;;;9.85;7.72;;;0.50;99.90;;;;;;5031437;28;20041;-71
2023/03/08 07:07:41;;;;;;;10.68;8.13;;;0.40;99.90;;;;;;5031791;28;20144;-71
2023/03/08 07:10:09;;;;;;;11.25;8.48;;;0.50;99.90;;;;;;5014281;28;20436;-71
2023/03/08 07:12:39;;;;;;;12.20;8.50;;;0.70;99.90;;;;;;5031747;28;20053;-71
2023/03/08 07:15:09;;;;;;;12.60;8.57;;;0.70;99.90;;;;;;5031309;28;20041;-71
2023/03/08 07:17:35;;;;;;;10.30;9.10;;;0.70;99.90;;;;;;5030958;28;20087;-71
2023/03/08 07:20:04;;;;;;;10.70;9.40;;;0.70;99.90;;;;;;5031654;28;20037;-71
2023/03/08 07:22:30;;;;;;;11.52;8.25;;;0.80;99.90;;;;;;5031524;28;20052;-71
2023/03/08 07:24:55;;;;;;;11.52;8.82;;;0.60;99.90;;;;;;5031104;28;20042;-71
2023/03/08 07:27:21;;;;;;;10.55;8.73;;;0.70;99.90;;;;;;5031557;28;20037;-71
2023/03/08 07:29:46;;;;;;;9.68;8.70;;;0.80;99.90;;;;;;5031430;28;20426;-71
2023/03/08 07:32:12;;;;;;;10.65;8.45;;;0.90;99.90;;;;;;5031511;28;20563;-71
2023/03/08 07:34:37;;;;;;;9.32;8.02;;;1.00;99.90;;;;;;5030801;28;20098;-71
2023/03/08 07:37:03;;;;;;;11.10;8.95;;;1.00;99.90;;;;;;5017132;28;20083;-71
2023/03/08 07:39:28;;;;;;;9.80;8.75;;;0.90;99.90;;;;;;5011702;28;20038;-71
2023/03/08 07:41:54;;;;;;;13.15;9.38;;;0.90;99.90;;;;;;5011640;28;20042;-71
2023/03/08 07:44:20;;;;;;;11.02;9.18;;;0.90;99.90;;;;;;5011028;28;20112;-71
2023/03/08 07:46:45;;;;;;;13.07;8.48;;;1.00;99.90;;;;;;5011692;28;20052;-71
2023/03/08 07:49:11;;;;;;;12.80;8.88;;;1.00;99.90;;;;;;5011849;28;20042;-71
2023/03/08 07:51:36;;;;;;;10.07;8.27;;;1.10;99.90;;;;;;5011923;28;20374;-71
2023/03/08 07:54:02;;;;;;;11.27;8.25;;;1.20;99.90;;;;;;5011052;28;20077;-71
2023/03/08 07:56:28;;;;;;;13.52;9.32;;;1.20;99.90;;;;;;5011829;28;20410;-72
2023/03/08 07:58:56;;;;;;;11.75;8.73;;;1.20;99.90;;;;;;5011632;28;20052;-72
2023/03/08 08:01:22;;;;;;;11.88;8.35;;;1.40;99.90;;;;;;5011482;28;20042;-71
2023/03/08 08:03:48;;;;;;;10.02;8.30;;;1.40;99.90;;;;;;5011111;28;20049;-71
2023/03/08 08:06:13;;;;;;;13.50;8.10;;;1.40;99.90;;;;;;5011195;28;20033;-71
2023/03/08 08:08:39;;;;;;;9.75;8.00;;;1.50;99.90;;;;;;4977618;28;20044;-71
2023/03/08 08:11:16;;;;;;;10.45;9.23;;;1.60;99.90;;;;;;5011464;28;20519;-71
2023/03/08 08:13:42;;;;;;;9.70;8.70;;;1.50;99.90;;;;;;5012998;28;20084;-71
2023/03/08 08:16:08;;;;;;;11.00;9.77;;;1.50;99.90;;;;;;5012430;28;20077;-71
2023/03/08 08:18:34;;;;;;;11.00;8.63;;;1.60;99.90;;;;;;5015125;28;20037;-71
2023/03/08 08:21:05;;;;;;;10.38;9.15;;;1.70;99.90;;;;;;5015097;28;20034;-71
2023/03/08 08:23:31;;;;;;;9.52;8.52;;;1.80;99.90;;;;;;4997032;28;20078;-71
2023/03/08 08:25:58;;;;;;;13.93;9.07;;;1.70;99.90;;;;;;5014917;28;20042;-71
2023/03/08 08:28:24;;;;;;;11.95;9.07;;;1.80;99.90;;;;;;5014993;28;20069;-72
2023/03/08 08:30:58;;;;;;;12.65;9.70;;;1.90;99.90;;;;;;4996908;28;20038;-72
2023/03/08 08:33:24;;;;;;;12.10;9.23;;;1.90;99.90;;;;;;4996624;28;20452;-72
2023/03/08 08:35:49;;;;;;;10.80;9.02;;;2.10;99.90;;;;;;5014581;28;20116;-72
2023/03/08 08:38:15;;;;;;;12.32;8.82;;;2.10;99.90;;;;;;5014684;28;20076;-72
2023/03/08 08:40:41;;;;;;;11.02;8.93;;;2.20;99.90;;;;;;5014537;28;20676;-72
2023/03/08 08:43:06;;;;;;;11.57;9.48;;;2.00;99.90;;;;;;5014209;28;20038;-72
2023/03/08 08:45:32;;;;;;;13.75;9.18;;;2.10;99.90;;;;;;5014596;28;20041;-72
2023/03/08 08:47:57;;;;;;;10.27;8.13;;;2.10;99.90;;;;;;5014647;28;20038;-71
2023/03/08 08:50:23;;;;;;;11.00;9.88;;;2.10;99.90;;;;;;5014483;28;20042;-72
2023/03/08 08:52:48;;;;;;;10.73;8.63;;;2.30;99.90;;;;;;5014241;28;20038;-71
2023/03/08 08:55:14;;;;;;;10.43;8.38;;;2.20;99.90;;;;;;5013915;28;20518;-72
2023/03/08 08:57:39;;;;;;;10.07;8.95;;;2.20;99.90;;;;;;5014450;28;20045;-72
2023/03/08 09:00:08;;;;;;;11.05;8.60;;;2.30;99.90;;;;;;5014208;28;20052;-71
2023/03/08 09:02:35;;;;;;;10.52;9.43;;;2.40;99.90;;;;;;5014225;28;20042;-71
2023/03/08 09:05:01;;;;;;;11.30;8.27;;;2.40;99.90;;;;;;5013746;28;20096;-72
2023/03/08 09:07:26;;;;;;;9.48;8.48;;;2.60;99.90;;;;;;5014092;28;20493;-72
2023/03/08 09:09:54;;;;;;;9.70;8.23;;;2.60;99.90;;;;;;5013814;28;20160;-72
2023/03/08 09:12:20;;;;;;;12.43;8.35;;;2.60;99.90;;;;;;5005413;28;20117;-72
2023/03/08 09:14:46;;;;;;;10.13;7.85;;;2.60;99.90;;;;;;5022898;28;20135;-72
2023/03/08 09:17:11;;;;;;;13.50;7.72;;;2.60;99.90;;;;;;5027800;28;20032;-72
2023/03/08 09:19:37;;;;;;;13.68;8.65;;;2.50;99.90;;;;;;5021613;28;20076;-72
2023/03/08 09:22:03;;;;;;;10.88;9.00;;;2.60;99.90;;;;;;5013952;28;20030;-72
2023/03/08 09:24:29;;;;;;;11.70;9.32;;;2.50;99.90;;;;;;5029217;28;20076;-72
2023/03/08 09:26:54;;;;;;;11.70;8.25;;;2.70;99.90;;;;;;5013732;28;20079;-72
2023/03/08 09:29:20;;;;;;;10.60;8.85;;;2.80;99.90;;;;;;5044031;28;20086;-72
2023/03/08 09:31:45;;;;;;;9.20;8.02;;;2.90;99.90;;;;;;5033679;28;20048;-72
2023/03/08 09:34:13;;;;;;;8.50;7.70;;;2.80;99.90;;;;;;5022792;28;20041;-73
2023/03/08 09:36:40;;;;;;;9.93;7.40;;;2.90;99.90;;;;;;5009641;28;20048;-71
2023/03/08 09:39:07;;;;;;;10.35;7.78;;;2.80;99.90;;;;;;5026499;28;20042;-71
2023/03/08 09:41:54;;;;;;;8.60;7.70;;;2.90;99.90;;;;;;5025995;28;20038;-71
2023/03/08 09:44:42;;;;;;;9.27;6.95;;;2.80;99.90;;;;;;5011508;28;20042;-71
2023/03/08 09:47:24;;;;;;;12.75;8.95;;;2.90;99.90;;;;;;5014134;28;20068;-71
2023/03/08 09:49:54;;;;;;;9.50;7.60;;;3.10;99.90;;;;;;5013815;28;20564;-71
2023/03/08 09:52:39;;;;;;;9.93;7.93;;;3.10;99.90;;;;;;5009517;28;20061;-71
2023/03/08 09:55:16;;;;;;;12.18;8.48;;;3.40;99.90;;;;;;5027044;28;20034;-72
2023/03/08 09:57:51;;;;;;;10.63;9.27;;;3.30;99.90;;;;;;5009226;28;20489;-71
2023/03/08 10:00:40;;;;;;;10.38;9.10;;;3.30;99.90;;;;;;5031868;28;20040;-71
2023/03/08 10:03:22;;;;;;;10.18;8.27;;;3.20;99.90;;;;;;5031021;28;20116;-72
2023/03/08 10:06:46;;;;;;;10.85;8.13;;;3.20;99.90;;;;;;5010554;28;20038;-71
2023/03/08 10:09:20;;;;;;;8.52;7.60;;;3.40;99.90;;;;;;4926369;29;20043;-71
2023/03/08 10:11:53;;;;;;;11.95;7.88;;;3.30;99.90;;;;;;5000065;28;20045;-71
2023/03/08 10:14:22;;;;;;;;;;;3.30;99.90;;;;;;5009738;28;20037;-71
2023/03/08 10:16:56;;;;;;;9.98;7.80;;;3.40;99.90;;;;;;5031995;28;20050;-72
2023/03/08 10:19:25;;;;;;;9.50;7.10;;;3.60;99.90;;;;;;5014416;28;20493;-71
2023/03/08 10:21:51;;;;;;;8.18;6.97;;;3.60;99.90;;;;;;5005040;28;20493;-71
2023/03/08 10:24:38;;;;;;;7.95;7.15;;;3.60;99.90;;;;;;5028724;28;20049;-71
2023/03/08 10:27:18;;;;;;;9.65;6.10;;;3.70;99.90;;;;;;5012324;28;20115;-72
2023/03/08 10:29:50;;;;;;;9.43;5.80;;;3.60;99.90;;;;;;5029318;28;20042;-72
2023/03/08 10:32:15;;;;;;;7.20;5.22;;;3.60;99.90;;;;;;5026144;28;20033;-72
2023/03/08 10:34:41;;;;;;;7.53;5.28;;;3.70;99.90;;;;;;5009795;28;20067;-73
2023/03/08 10:37:08;;;;;;;11.73;7.07;;;3.80;99.90;;;;;;5028293;28;20428;-72
2023/03/08 10:39:35;;;;;;;5.53;4.95;;;3.80;99.90;;;;;;5031253;28;20033;-73
2023/03/08 10:42:12;;;;;;;6.18;5.35;;;3.90;99.90;;;;;;5023402;28;20057;-72
2023/03/08 10:44:57;;;;;;;7.47;4.28;;;3.90;99.90;;;;;;5013344;28;20140;-72
2023/03/08 10:47:32;;;;;;;5.15;3.15;;;3.90;99.90;;;;;;5029102;28;20544;-73
2023/03/08 10:50:16;;;;;;;3.90;2.33;;;3.90;99.90;;;;;;5013547;28;20045;-72
2023/03/08 10:52:47;;;;;;;4.63;3.20;;;3.90;99.90;;;;;;5024965;28;20050;-72
2023/03/08 10:55:17;;;;;;;2.83;2.55;;;4.10;99.90;;;;;;5031306;28;20048;-72
2023/03/08 10:57:56;;;;;;;3.65;1.60;;;4.20;99.90;;;;;;5031272;28;20492;-71
2023/03/08 11:00:41;;;;;;;1.88;1.17;;;4.10;99.90;;;;;;5027013;28;20517;-72
2023/03/08 11:03:21;;;;;;;4.65;2.45;;;4.30;99.90;;;;;;5011026;28;20045;-72
2023/03/08 11:05:58;;;;;;;4.28;1.92;;;4.30;99.90;;;;;;5013368;28;20073;-72
2023/03/08 11:08:28;;;;;;;2.95;2.28;;;4.50;99.90;;;;;;5013609;28;20060;-71
2023/03/08 11:11:10;;;;;;;3.15;2.08;;;4.50;99.90;;;;;;5030992;28;20595;-73
2023/03/08 11:13:41;;;;;;;2.92;2.40;;;4.70;99.90;;;;;;5013353;28;20066;-73
2023/03/08 11:16:28;;;;;;;4.43;2.70;;;4.70;99.90;;;;;;5010301;28;20116;-72
2023/03/08 11:19:31;;;;;;;4.05;2.30;;;4.70;99.90;;;;;;5027007;28;20041;-72
2023/03/08 11:22:06;;;;;;;4.72;2.28;;;4.60;99.90;;;;;;5030564;28;20046;-72
2023/03/08 11:25:00;;;;;;;4.20;2.35;;;4.40;99.90;;;;;;4995277;28;20045;-72
2023/03/08 11:27:54;;;;;;;3.22;2.17;;;4.50;99.90;;;;;;5008609;28;20455;-71
2023/03/08 11:30:41;;;;;;;2.80;1.98;;;4.50;99.90;;;;;;5026581;28;20580;-71
2023/03/08 11:33:53;;;;;;;3.22;1.67;;;4.60;99.90;;;;;;5024317;28;20559;-71
2023/03/08 11:36:43;;;;;;;3.55;2.50;;;4.50;99.90;;;;;;5028256;28;20037;-72
2023/03/08 11:39:30;;;;;;;3.15;2.10;;;4.50;99.90;;;;;;5025746;28;20037;-72
2023/03/08 11:42:15;;;;;;;4.53;2.33;;;4.50;99.90;;;;;;5030347;28;20053;-72
2023/03/08 11:45:03;;;;;;;3.20;2.20;;;4.50;99.90;;;;;;5012554;28;20042;-72
2023/03/08 11:47:55;;;;;;;5.15;2.92;;;4.50;99.90;;;;;;5013238;28;20080;-73
2023/03/08 11:50:27;;;;;;;3.88;2.95;;;4.50;99.90;;;;;;5007723;28;20120;-72
2023/03/08 11:53:16;;;;;;;4.55;3.58;;;4.50;99.90;;;;;;5016305;28;20051;-73
2023/03/08 11:55:47;;;;;;;5.43;3.47;;;4.60;99.90;;;;;;5046355;22;20046;-71
2023/03/08 11:58:33;;;;;;;6.13;3.70;;;4.60;99.90;;;;;;5033877;28;20037;-71
2023/03/08 12:01:08;;;;;;;6.88;4.70;;;4.60;99.90;;;;;;5035230;28;20148;-73
2023/03/08 12:03:39;;;;;;;8.60;6.00;;;4.70;99.90;;;;;;5033544;28;20405;-71
2023/03/08 12:06:18;;;;;;;8.32;5.00;;;4.60;99.90;;;;;;5035068;28;20042;-71
2023/03/08 12:08:49;;;;;;;9.65;6.93;;;4.70;99.90;;;;;;5033761;28;20128;-71
2023/03/08 12:11:30;;;;;;;11.25;6.38;;;4.70;99.90;;;;;;5035082;28;20481;-73
2023/03/08 12:14:33;;;;;;;8.65;6.60;;;4.90;99.90;;;;;;5033718;28;20381;-74
2023/03/08 12:17:07;;;;;;;6.47;5.22;;;4.90;99.90;;;;;;5028552;28;20501;-73
2023/03/08 12:19:48;;;;;;;7.00;3.78;;;5.00;99.90;;;;;;5011261;28;20038;-72
2023/03/08 12:22:32;;;;;;;4.68;3.60;;;4.90;99.90;;;;;;5014115;28;20038;-73
2023/03/08 12:25:37;;;;;;;9.35;4.78;;;4.90;99.90;;;;;;5013342;28;20088;-73
2023/03/08 12:28:13;;;;;;;5.07;3.72;;;4.90;99.90;;;;;;5010622;28;20169;-74
2023/03/08 12:30:47;;;;;;;4.45;2.88;;;4.90;99.90;;;;;;5013519;28;20074;-74
2023/03/08 12:33:15;;;;;;;4.63;2.88;;;4.90;99.90;;;;;;4996840;28;20505;-73
2023/03/08 12:36:00;;;;;;;10.55;3.78;;;5.00;99.90;;;;;;5013576;28;20052;-73
2023/03/08 12:38:45;;;;;;;8.75;3.90;;;4.90;99.90;;;;;;5013668;28;20057;-72
2023/03/08 12:41:23;;;;;;;5.45;3.40;;;4.90;99.90;;;;;;5013316;28;20042;-72
2023/03/08 12:44:33;;;;;;;5.68;3.70;;;4.80;99.90;;;;;;5012893;28;20078;-72
2023/03/08 12:47:02;;;;;;;6.53;3.80;;;4.90;99.90;;;;;;4953987;29;20043;-73
2023/03/08 12:49:30;;;;;;;5.10;3.22;;;4.90;99.90;;;;;;5015424;28;20050;-72
2023/03/08 12:52:16;;;;;;;6.28;3.88;;;4.80;99.90;;;;;;5013375;28;20125;-72
2023/03/08 12:54:42;;;;;;;4.45;3.40;;;4.90;99.90;;;;;;5012740;28;20053;-72
2023/03/08 12:57:21;;;;;;;5.40;3.67;;;4.90;99.90;;;;;;5013320;28;20049;-72
2023/03/08 12:59:46;;;;;;;5.50;3.47;;;4.90;99.90;;;;;;5013138;28;20131;-72
2023/03/08 13:02:27;;;;;;;5.47;3.80;;;4.90;99.90;;;;;;5012968;28;20081;-72
2023/03/08 13:05:12;;;;;;;5.28;3.90;;;4.90;99.90;;;;;;5013064;28;20049;-72
2023/03/08 13:07:51;;;;;;;4.63;3.28;;;5.00;99.90;;;;;;5013279;28;20053;-72
2023/03/08 13:10:21;;;;;;;4.45;2.78;;;4.90;99.90;;;;;;5012942;28;20052;-72